createdAt,value
2022-10-02T00:01:07.811Z,8.80
2022-10-02T00:03:39.881Z,10.40
2022-10-02T00:06:11.939Z,10.20
2022-10-02T00:08:42.317Z,15.20
2022-10-02T00:11:17.281Z,13.80
2022-10-02T00:13:47.893Z,12.07
2022-10-02T00:16:24.834Z,9.93
2022-10-02T00:18:55.771Z,10.40
2022-10-02T00:21:36.088Z,13.20
2022-10-02T00:24:06.514Z,15.07
2022-10-02T00:26:41.981Z,10.90
2022-10-02T00:29:25.487Z,11.30
2022-10-02T00:32:07.066Z,19.23
2022-10-02T00:34:41.494Z,9.43
2022-10-02T00:37:21.472Z,12.60
2022-10-02T00:40:02.995Z,15.73
2022-10-02T00:42:58.902Z,10.30
2022-10-02T00:45:49.955Z,11.77
2022-10-02T00:48:35.818Z,15.57
2022-10-02T00:51:15.491Z,13.57
2022-10-02T00:53:53.260Z,15.53
2022-10-02T00:56:29.252Z,19.33
2022-10-02T00:59:13.453Z,8.30
2022-10-02T01:01:47.203Z,11.57
2022-10-02T01:04:20.620Z,11.43
2022-10-02T01:06:48.394Z,10.20
2022-10-02T01:09:16.706Z,13.53
2022-10-02T01:11:44.933Z,8.70
2022-10-02T01:14:14.957Z,18.90
2022-10-02T01:16:42.940Z,14.83
2022-10-02T01:19:21.988Z,18.50
2022-10-02T01:21:54.242Z,14.53
2022-10-02T01:24:29.695Z,10.40
2022-10-02T01:26:59.334Z,12.50
2022-10-02T01:29:27.117Z,22.47
2022-10-02T01:31:55.354Z,11.87
2022-10-02T01:34:23.870Z,21.10
2022-10-02T01:36:51.712Z,13.23
2022-10-02T01:39:19.595Z,13.80
2022-10-02T01:41:47.385Z,13.40
2022-10-02T01:44:16.980Z,12.53
2022-10-02T01:46:51.634Z,18.13
2022-10-02T01:49:35.244Z,8.00
2022-10-02T01:52:20.098Z,12.30
2022-10-02T01:55:04.059Z,11.23
2022-10-02T01:57:46.748Z,16.60
2022-10-02T02:00:18.676Z,12.07
2022-10-02T02:02:57.857Z,16.30
2022-10-02T02:05:35.684Z,12.17
2022-10-02T02:08:10.817Z,17.70
2022-10-02T02:10:47.388Z,10.53
2022-10-02T02:13:21.523Z,8.77
2022-10-02T02:15:58.936Z,16.93
2022-10-02T02:18:30.089Z,13.57
2022-10-02T02:21:02.333Z,12.27
2022-10-02T02:23:33.609Z,24.63
2022-10-02T02:26:04.434Z,14.20
2022-10-02T02:28:34.182Z,8.27
2022-10-02T02:31:06.038Z,12.57
2022-10-02T02:33:39.875Z,8.90
2022-10-02T02:36:13.616Z,8.40
2022-10-02T02:38:47.088Z,17.90
2022-10-02T02:41:21.083Z,12.77
2022-10-02T02:43:55.068Z,14.00
2022-10-02T02:46:29.533Z,12.30
2022-10-02T02:49:04.019Z,20.63
2022-10-02T02:51:42.088Z,8.17
2022-10-02T02:54:16.787Z,13.27
2022-10-02T02:56:46.539Z,8.33
2022-10-02T02:59:15.905Z,18.23
2022-10-02T03:01:45.113Z,17.00
2022-10-02T03:04:14.196Z,17.60
2022-10-02T03:06:43.923Z,12.17
2022-10-02T03:09:14.785Z,13.60
2022-10-02T03:11:52.395Z,10.77
2022-10-02T03:14:41.385Z,13.33
2022-10-02T03:17:22.800Z,11.07
2022-10-02T03:19:55.676Z,11.87
2022-10-02T03:22:35.690Z,11.57
2022-10-02T03:25:14.200Z,15.60
2022-10-02T03:27:47.392Z,7.63
2022-10-02T03:30:20.495Z,12.83
2022-10-02T03:32:53.447Z,8.53
2022-10-02T03:35:22.647Z,13.47
2022-10-02T03:37:53.936Z,11.57
2022-10-02T03:40:24.121Z,10.17
2022-10-02T03:42:52.937Z,13.93
2022-10-02T03:45:46.284Z,9.40
2022-10-02T03:48:10.267Z,10.70
2022-10-02T03:50:37.874Z,11.40
2022-10-02T03:53:13.896Z,11.93
2022-10-02T03:55:46.430Z,8.53
2022-10-02T03:58:17.195Z,9.87
2022-10-02T04:00:53.338Z,7.63
2022-10-02T04:03:27.272Z,13.70
2022-10-02T04:06:00.161Z,17.87
2022-10-02T04:08:32.538Z,17.73
2022-10-02T04:11:07.915Z,8.37
2022-10-02T04:13:40.866Z,12.67
2022-10-02T04:16:14.192Z,21.23
2022-10-02T04:18:52.571Z,12.70
2022-10-02T04:21:34.295Z,7.17
2022-10-02T04:24:10.255Z,20.20
2022-10-02T04:26:47.158Z,12.00
2022-10-02T04:29:19.650Z,11.63
2022-10-02T04:31:52.048Z,8.73
2022-10-02T04:34:21.180Z,14.67
2022-10-02T04:37:03.472Z,11.93
2022-10-02T04:39:46.390Z,11.60
2022-10-02T04:42:33.235Z,13.90
2022-10-02T04:45:18.239Z,9.80
2022-10-02T04:48:27.080Z,12.93
2022-10-02T04:51:03.000Z,14.13
2022-10-02T04:53:46.794Z,9.47
2022-10-02T04:56:37.985Z,15.70
2022-10-02T04:59:18.805Z,13.10
2022-10-02T05:01:59.482Z,12.43
2022-10-02T05:04:59.306Z,10.63
2022-10-02T05:07:59.971Z,11.97
2022-10-02T05:10:50.058Z,13.20
2022-10-02T05:13:38.568Z,18.07
2022-10-02T05:16:27.901Z,11.20
2022-10-02T05:19:10.489Z,12.00
2022-10-02T05:21:51.565Z,13.23
2022-10-02T05:24:38.392Z,18.80
2022-10-02T05:27:23.723Z,8.87
2022-10-02T05:30:05.708Z,17.23
2022-10-02T05:33:11.874Z,12.73
2022-10-02T05:35:59.389Z,11.10
2022-10-02T05:38:53.043Z,10.50
2022-10-02T05:41:29.771Z,16.10
2022-10-02T05:44:02.573Z,13.60
2022-10-02T05:46:36.450Z,14.03
2022-10-02T05:49:10.866Z,15.80
2022-10-02T05:51:45.328Z,12.57
2022-10-02T05:54:26.258Z,17.10
2022-10-02T05:56:59.351Z,27.77
2022-10-02T05:59:33.532Z,12.63
2022-10-02T06:02:05.337Z,15.13
2022-10-02T06:04:38.529Z,15.00
2022-10-02T06:07:10.928Z,13.90
2022-10-02T06:09:48.948Z,16.30
2022-10-02T06:12:26.633Z,9.40
2022-10-02T06:15:00.978Z,17.03
2022-10-02T06:17:31.863Z,10.17
2022-10-02T06:20:04.336Z,27.30
2022-10-02T06:22:36.693Z,13.23
2022-10-02T06:25:12.956Z,10.53
2022-10-02T06:27:47.704Z,17.30
2022-10-02T06:30:17.643Z,16.70
2022-10-02T06:32:55.441Z,16.93
2022-10-02T06:35:37.489Z,12.47
2022-10-02T06:38:20.996Z,12.97
2022-10-02T06:41:01.698Z,21.07
2022-10-02T06:43:59.258Z,18.13
2022-10-02T06:46:35.264Z,10.60
2022-10-02T06:49:10.183Z,16.30
2022-10-02T06:51:49.865Z,18.50
2022-10-02T06:54:32.678Z,11.67
2022-10-02T06:57:35.805Z,14.03
2022-10-02T07:00:12.165Z,14.53
2022-10-02T07:03:24.221Z,18.50
2022-10-02T07:06:11.483Z,18.43
2022-10-02T07:08:55.134Z,13.03
2022-10-02T07:11:29.273Z,9.40
2022-10-02T07:14:16.281Z,6.93
2022-10-02T07:17:12.034Z,11.50
2022-10-02T07:19:57.724Z,11.27
2022-10-02T07:22:44.902Z,9.00
2022-10-02T07:25:39.571Z,12.90
2022-10-02T07:28:13.146Z,9.47
2022-10-02T07:30:54.382Z,11.80
2022-10-02T07:33:34.753Z,11.97
2022-10-02T07:36:10.487Z,10.43
2022-10-02T07:38:55.915Z,6.57
2022-10-02T07:41:49.494Z,12.50
2022-10-02T07:44:27.989Z,7.87
2022-10-02T07:47:04.528Z,10.40
2022-10-02T07:49:45.478Z,8.47
2022-10-02T07:52:22.203Z,11.87
2022-10-02T07:55:20.791Z,4.53
2022-10-02T07:57:59.759Z,7.63
2022-10-02T08:00:31.318Z,11.63
2022-10-02T08:03:02.929Z,6.47
2022-10-02T08:05:35.954Z,5.93
2022-10-02T08:08:12.100Z,8.90
2022-10-02T08:10:44.640Z,10.00
2022-10-02T08:13:20.450Z,10.63
2022-10-02T08:15:51.582Z,5.30
2022-10-02T08:18:36.947Z,4.27
2022-10-02T08:21:12.654Z,8.53
2022-10-02T08:23:44.529Z,11.30
2022-10-02T08:26:18.738Z,8.80
2022-10-02T08:28:57.803Z,3.63
2022-10-02T08:31:26.346Z,6.40
2022-10-02T08:33:55.416Z,7.70
2022-10-02T08:36:54.370Z,5.10
2022-10-02T08:39:50.413Z,7.97
2022-10-02T08:42:56.299Z,6.50
2022-10-02T08:46:13.153Z,2.63
2022-10-02T08:49:19.355Z,3.57
2022-10-02T08:52:20.489Z,3.80
2022-10-02T08:55:19.127Z,6.07
2022-10-02T08:58:19.513Z,4.00
2022-10-02T09:00:59.647Z,5.43
2022-10-02T09:03:54.301Z,2.10
2022-10-02T09:06:56.761Z,3.60
2022-10-02T09:10:12.739Z,3.10
2022-10-02T09:13:14.182Z,3.80
2022-10-02T09:15:47.006Z,4.33
2022-10-02T09:18:24.761Z,2.23
2022-10-02T09:21:15.986Z,3.10
2022-10-02T09:24:15.967Z,4.23
2022-10-02T09:27:08.642Z,6.80
2022-10-02T09:30:16.722Z,3.63
2022-10-02T09:33:16.121Z,4.50
2022-10-02T09:36:06.412Z,4.53
2022-10-02T09:39:01.838Z,4.23
2022-10-02T09:42:06.236Z,4.30
2022-10-02T09:45:11.079Z,3.57
2022-10-02T09:48:17.439Z,3.40
2022-10-02T09:51:07.625Z,3.03
2022-10-02T09:54:01.130Z,2.47
2022-10-02T09:56:58.748Z,4.67
2022-10-02T09:59:49.661Z,2.87
2022-10-02T10:02:43.746Z,2.90
2022-10-02T10:05:34.033Z,4.53
2022-10-02T10:08:36.122Z,3.73
2022-10-02T10:11:38.544Z,2.80
2022-10-02T10:14:51.863Z,3.53
2022-10-02T10:17:59.422Z,2.87
2022-10-02T10:21:07.257Z,5.60
2022-10-02T10:23:57.880Z,4.50
2022-10-02T10:26:49.421Z,1.83
2022-10-02T10:29:54.311Z,3.90
2022-10-02T10:33:01.302Z,3.27
2022-10-02T10:35:53.700Z,3.10
2022-10-02T10:38:52.217Z,3.93
2022-10-02T10:41:44.713Z,2.50
2022-10-02T10:44:37.471Z,3.10
2022-10-02T10:47:34.926Z,3.17
2022-10-02T10:50:30.876Z,2.83
2022-10-02T10:53:17.448Z,3.10
2022-10-02T10:56:11.042Z,1.93
2022-10-02T10:59:00.217Z,2.53
2022-10-02T11:01:43.312Z,1.80
2022-10-02T11:04:33.954Z,1.50
2022-10-02T11:07:15.512Z,2.87
2022-10-02T11:10:11.863Z,2.97
2022-10-02T11:12:58.406Z,1.70
2022-10-02T11:15:53.104Z,1.90
2022-10-02T11:18:33.212Z,2.60
2022-10-02T11:21:24.230Z,2.03
2022-10-02T11:24:21.775Z,1.53
2022-10-02T11:27:09.509Z,1.80
2022-10-02T11:30:12.732Z,2.27
2022-10-02T11:33:03.094Z,3.60
2022-10-02T11:35:38.188Z,3.93
2022-10-02T11:38:32.835Z,1.80
2022-10-02T11:41:41.967Z,1.53
2022-10-02T11:44:16.837Z,1.40
2022-10-02T11:47:01.712Z,1.50
2022-10-02T11:50:00.144Z,2.80
2022-10-02T11:52:56.730Z,3.47
2022-10-02T11:55:38.600Z,2.70
2022-10-02T11:58:20.477Z,2.17
2022-10-02T12:01:09.421Z,1.43
2022-10-02T12:03:52.176Z,2.47
2022-10-02T12:06:34.473Z,2.47
2022-10-02T12:09:10.231Z,4.10
2022-10-02T12:11:45.850Z,1.90
2022-10-02T12:14:26.546Z,1.90
2022-10-02T12:17:08.389Z,9.40
2022-10-02T12:20:10.944Z,2.00
2022-10-02T12:23:06.354Z,1.40
2022-10-02T12:25:59.053Z,1.40
2022-10-02T12:28:36.394Z,1.40
2022-10-02T12:31:14.266Z,1.67
2022-10-02T12:33:55.699Z,3.80
2022-10-02T12:36:36.065Z,2.90
2022-10-02T12:39:16.746Z,2.13
2022-10-02T12:42:04.556Z,1.63
2022-10-02T12:44:48.728Z,2.37
2022-10-02T12:47:49.259Z,2.47
2022-10-02T12:50:27.679Z,1.50
2022-10-02T12:53:31.026Z,1.83
2022-10-02T12:56:35.749Z,1.77
2022-10-02T12:59:12.313Z,1.60
2022-10-02T13:02:10.940Z,1.37
2022-10-02T13:05:14.151Z,4.60
2022-10-02T13:08:19.872Z,3.40
2022-10-02T13:10:55.028Z,2.07
2022-10-02T13:13:36.699Z,1.80
2022-10-02T13:16:13.756Z,2.17
2022-10-02T13:18:59.459Z,2.20
2022-10-02T13:21:38.994Z,3.93
2022-10-02T13:24:26.670Z,2.87
2022-10-02T13:27:03.102Z,2.17
2022-10-02T13:29:45.726Z,1.60
2022-10-02T13:32:38.238Z,4.33
2022-10-02T13:35:32.455Z,1.70
2022-10-02T13:38:18.494Z,2.10
2022-10-02T13:40:57.013Z,1.90
2022-10-02T13:44:01.056Z,1.97
2022-10-02T13:46:49.471Z,2.00
2022-10-02T13:49:31.694Z,3.00
2022-10-02T13:52:17.736Z,3.27
2022-10-02T13:55:26.852Z,1.50
2022-10-02T13:58:23.380Z,3.53
2022-10-02T14:01:21.749Z,1.77
2022-10-02T14:04:13.251Z,1.70
2022-10-02T14:06:51.612Z,8.40
2022-10-02T14:09:52.436Z,1.30
2022-10-02T14:12:37.250Z,1.87
2022-10-02T14:15:20.508Z,3.00
2022-10-02T14:18:10.416Z,1.43
2022-10-02T14:20:45.432Z,5.07
2022-10-02T14:23:38.110Z,1.80
2022-10-02T14:26:22.308Z,2.37
2022-10-02T14:29:24.118Z,1.33
2022-10-02T14:35:47.719Z,1.70
2022-10-02T14:38:31.871Z,1.30
2022-10-02T14:41:15.063Z,2.80
2022-10-02T14:44:10.707Z,2.63
2022-10-02T14:47:15.259Z,2.87
2022-10-02T14:50:04.630Z,1.87
2022-10-02T14:52:53.090Z,2.13
2022-10-02T14:55:34.533Z,1.40
2022-10-02T14:58:17.783Z,2.10
2022-10-02T15:01:02.500Z,3.00
2022-10-02T15:04:01.325Z,2.30
2022-10-02T15:06:41.037Z,3.80
2022-10-02T15:09:17.002Z,2.00
2022-10-02T15:11:54.383Z,2.70
2022-10-02T15:14:29.083Z,1.77
2022-10-02T15:17:19.834Z,2.50
2022-10-02T15:19:50.395Z,2.63
2022-10-02T15:22:25.395Z,2.10
2022-10-02T15:24:57.701Z,2.97
2022-10-02T15:27:27.152Z,10.43
2022-10-02T15:30:06.094Z,3.00
2022-10-02T15:33:10.156Z,2.30
2022-10-02T15:35:52.830Z,2.50
2022-10-02T15:38:47.430Z,5.83
2022-10-02T15:41:33.150Z,3.23
2022-10-02T15:44:09.981Z,3.93
2022-10-02T15:46:55.483Z,4.00
2022-10-02T15:49:38.570Z,1.93
2022-10-02T15:52:12.386Z,3.23
2022-10-02T15:54:48.600Z,6.03
2022-10-02T15:57:39.991Z,6.00
2022-10-02T16:00:14.721Z,3.30
2022-10-02T16:02:57.593Z,7.30
2022-10-02T16:05:50.157Z,3.53
2022-10-02T16:08:39.710Z,3.23
2022-10-02T16:11:28.269Z,6.57
2022-10-02T16:14:02.074Z,4.57
2022-10-02T16:16:58.549Z,1.90
2022-10-02T16:19:47.606Z,2.90
2022-10-02T16:22:30.260Z,2.70
2022-10-02T16:25:19.452Z,5.10
2022-10-02T16:27:57.807Z,3.33
2022-10-02T16:30:27.491Z,5.80
2022-10-02T16:33:29.188Z,5.13
2022-10-02T16:36:17.559Z,3.70
2022-10-02T16:38:51.299Z,4.20
2022-10-02T16:41:36.887Z,4.80
2022-10-02T16:44:25.572Z,8.07
2022-10-02T16:46:59.334Z,5.57
2022-10-02T16:49:34.205Z,3.93
2022-10-02T16:52:10.008Z,5.33
2022-10-02T16:54:47.923Z,5.20
2022-10-02T16:57:23.903Z,4.83
2022-10-02T17:00:01.006Z,3.23
2022-10-02T17:02:41.108Z,6.50
2022-10-02T17:05:16.676Z,4.30
2022-10-02T17:07:53.937Z,5.17
2022-10-02T17:10:33.864Z,5.20
2022-10-02T17:13:16.022Z,4.13
2022-10-02T17:15:50.159Z,8.27
2022-10-02T17:18:27.659Z,19.63
2022-10-02T17:20:57.574Z,5.40
2022-10-02T17:23:30.827Z,4.67
2022-10-02T17:26:06.844Z,6.77
2022-10-02T17:28:42.463Z,5.10
2022-10-02T17:31:41.839Z,6.73
2022-10-02T17:34:19.962Z,6.93
2022-10-02T17:36:54.863Z,5.53
2022-10-02T17:39:45.195Z,5.20
2022-10-02T17:42:23.482Z,8.70
2022-10-02T17:45:01.865Z,7.43
2022-10-02T17:48:01.492Z,11.20
2022-10-02T17:50:52.571Z,4.50
2022-10-02T17:54:00.142Z,7.30
2022-10-02T17:56:57.084Z,11.43
2022-10-02T17:59:58.100Z,17.47
2022-10-02T18:02:50.790Z,9.50
2022-10-02T18:05:30.709Z,8.03
2022-10-02T18:08:13.037Z,6.73
2022-10-02T18:10:49.554Z,9.23
2022-10-02T18:13:42.489Z,7.90
2022-10-02T18:16:28.944Z,10.13
2022-10-02T18:19:29.002Z,8.80
2022-10-02T18:22:12.751Z,8.80
2022-10-02T18:25:05.011Z,13.27
2022-10-02T18:27:50.446Z,21.40
2022-10-02T18:30:21.148Z,25.07
2022-10-02T18:33:10.369Z,12.87
2022-10-02T18:35:50.127Z,14.77
2022-10-02T18:38:30.216Z,15.63
2022-10-02T18:41:08.720Z,14.33
2022-10-02T18:43:53.167Z,16.37
2022-10-02T18:46:32.910Z,11.43
2022-10-02T18:49:28.525Z,13.80
2022-10-02T18:52:21.746Z,12.70
2022-10-02T18:55:03.979Z,9.90
2022-10-02T18:57:42.983Z,13.20
2022-10-02T19:00:18.918Z,10.30
2022-10-02T19:03:16.473Z,11.20
2022-10-02T19:05:51.767Z,12.87
2022-10-02T19:08:24.210Z,10.30
2022-10-02T19:10:51.853Z,11.07
2022-10-02T19:13:27.385Z,11.30
2022-10-02T19:15:57.841Z,12.90
2022-10-02T19:18:29.326Z,6.10
2022-10-02T19:21:06.532Z,11.87
2022-10-02T19:23:40.051Z,8.53
2022-10-02T19:26:17.665Z,10.10
2022-10-02T19:28:48.439Z,11.23
2022-10-02T19:31:22.610Z,9.13
2022-10-02T19:33:57.109Z,9.00
2022-10-02T19:36:30.276Z,12.30
2022-10-02T19:39:01.292Z,11.90
2022-10-02T19:41:35.361Z,12.77
2022-10-02T19:44:07.094Z,17.20
2022-10-02T19:46:40.437Z,14.13
2022-10-02T19:49:15.319Z,11.67
2022-10-02T19:51:47.579Z,9.17
2022-10-02T19:54:20.960Z,11.90
2022-10-02T19:56:49.031Z,16.23
2022-10-02T19:59:19.967Z,13.13
2022-10-02T20:01:52.646Z,12.40
2022-10-02T20:04:23.557Z,10.10
2022-10-02T20:06:56.599Z,8.50
2022-10-02T20:09:31.096Z,8.30
2022-10-02T20:12:05.088Z,12.97
2022-10-02T20:14:38.378Z,14.80
2022-10-02T20:17:11.055Z,10.13
2022-10-02T20:19:45.081Z,11.03
2022-10-02T20:22:23.907Z,12.67
2022-10-02T20:24:58.190Z,8.50
2022-10-02T20:27:36.059Z,11.37
2022-10-02T20:30:06.930Z,10.23
2022-10-02T20:32:38.380Z,14.83
2022-10-02T20:35:15.461Z,10.00
2022-10-02T20:37:49.793Z,13.50
2022-10-02T20:40:20.164Z,9.77
2022-10-02T20:42:55.481Z,8.33
2022-10-02T20:45:28.003Z,12.37
2022-10-02T20:48:26.060Z,15.03
2022-10-02T20:51:01.843Z,13.27
2022-10-02T20:54:13.006Z,14.23
2022-10-02T20:56:59.395Z,11.50
2022-10-02T21:00:01.225Z,13.03
2022-10-02T21:02:48.059Z,12.87
2022-10-02T21:05:38.906Z,15.27
2022-10-02T21:08:32.832Z,9.73
2022-10-02T21:11:31.931Z,14.63
2022-10-02T21:14:35.232Z,7.70
2022-10-02T21:17:35.322Z,13.83
2022-10-02T21:20:51.745Z,11.53
2022-10-02T21:23:53.570Z,8.47
2022-10-02T21:27:03.056Z,11.77
2022-10-02T21:29:56.046Z,8.80
2022-10-02T21:32:37.151Z,13.67
2022-10-02T21:35:17.575Z,15.60
2022-10-02T21:38:01.000Z,12.07
2022-10-02T21:41:28.442Z,14.03
2022-10-02T21:44:26.383Z,11.50
2022-10-02T21:47:28.569Z,16.53
2022-10-02T21:50:32.543Z,14.93
2022-10-02T21:53:25.189Z,14.53
2022-10-02T21:56:16.964Z,13.57
2022-10-02T21:59:40.244Z,16.90
2022-10-02T22:02:38.742Z,15.20
2022-10-02T22:05:30.163Z,18.83
2022-10-02T22:08:09.895Z,17.13
2022-10-02T22:10:49.189Z,14.47
2022-10-02T22:13:25.712Z,15.17
2022-10-02T22:16:09.222Z,20.03
2022-10-02T22:18:48.199Z,16.10
2022-10-02T22:21:30.558Z,22.47
2022-10-02T22:24:14.487Z,18.83
2022-10-02T22:27:00.911Z,14.80
2022-10-02T22:29:38.620Z,16.97
2022-10-02T22:32:52.191Z,16.40
2022-10-02T22:35:31.000Z,11.80
2022-10-02T22:38:13.111Z,20.07
2022-10-02T22:40:47.119Z,15.80
2022-10-02T22:43:25.559Z,25.97
2022-10-02T22:45:59.702Z,15.33
2022-10-02T22:48:38.688Z,12.17
2022-10-02T22:51:18.755Z,16.10
2022-10-02T22:53:50.833Z,11.73
2022-10-02T22:56:26.401Z,15.17
2022-10-02T22:59:06.328Z,12.83
2022-10-02T23:01:44.239Z,11.70
2022-10-02T23:04:25.166Z,11.53
2022-10-02T23:07:02.152Z,9.77
2022-10-02T23:09:42.272Z,13.03
2022-10-02T23:12:16.312Z,21.27
2022-10-02T23:14:58.113Z,10.80
2022-10-02T23:17:31.483Z,12.77
2022-10-02T23:20:07.666Z,13.73
2022-10-02T23:22:39.896Z,16.33
2022-10-02T23:25:20.321Z,13.07
2022-10-02T23:27:55.910Z,16.27
2022-10-02T23:30:25.428Z,9.63
2022-10-02T23:32:58.788Z,14.93
2022-10-02T23:35:33.403Z,21.10
2022-10-02T23:38:07.791Z,18.63
2022-10-02T23:41:17.494Z,15.17
2022-10-02T23:43:51.145Z,12.03
2022-10-02T23:46:28.260Z,11.53
2022-10-02T23:48:56.646Z,15.40
2022-10-02T23:51:35.467Z,16.53
2022-10-02T23:54:36.068Z,12.30
2022-10-02T23:57:26.054Z,11.27
